Time;durP1;ratioP1;P1;durP2;ratioP2;P2;SDS_P1;SDS_P2;PMS_P1;PMS_P2;Temp;Humidity;BMP_temperature;BMP_pressure;BME280_temperature;BME280_humidity;BME280_pressure;Samples;Min_cycle;Max_cycle;Signal;HPM_P1;HPM_P2
2022/10/20 00:00:23;;;;;;;14.90;11.50;;;14.30;99.10;;;;;;5037350;28;20211;-87
2022/10/20 00:02:49;;;;;;;15.27;12.13;;;14.30;98.70;;;;;;5041926;28;20176;-88
2022/10/20 00:05:15;;;;;;;15.13;11.17;;;14.20;98.60;;;;;;5057804;28;20672;-86
2022/10/20 00:07:41;;;;;;;14.53;11.40;;;14.20;99.30;;;;;;5037710;28;20191;-87
2022/10/20 00:10:06;;;;;;;15.10;12.03;;;14.20;99.90;;;;;;5057975;28;20188;-83
2022/10/20 00:12:32;;;;;;;15.50;11.53;;;14.10;99.60;;;;;;5068725;28;20198;-83
2022/10/20 00:14:58;;;;;;;13.37;11.50;;;14.30;99.90;;;;;;5057557;28;20181;-80
2022/10/20 00:17:23;;;;;;;14.73;11.53;;;14.00;99.90;;;;;;5050888;28;20190;-82
2022/10/20 00:19:49;;;;;;;14.97;11.90;;;14.00;99.90;;;;;;5062991;28;20164;-88
2022/10/20 00:22:15;;;;;;;15.80;12.83;;;14.00;99.90;;;;;;5042539;28;20629;-87
2022/10/20 00:24:41;;;;;;;15.07;11.63;;;14.00;99.90;;;;;;5042365;28;20236;-83
2022/10/20 00:27:07;;;;;;;16.93;12.43;;;13.90;99.90;;;;;;5043349;28;20261;-84
2022/10/20 00:29:32;;;;;;;18.10;12.77;;;13.90;99.90;;;;;;5042191;28;20190;-88
2022/10/20 00:31:58;;;;;;;16.07;12.57;;;14.00;99.90;;;;;;5042572;28;20179;-85
2022/10/20 00:34:27;;;;;;;19.33;12.40;;;13.90;99.90;;;;;;5039851;28;20186;-85
2022/10/20 00:37:21;;;;;;;16.03;12.33;;;14.00;99.90;;;;;;5058247;28;20194;-85
2022/10/20 00:39:47;;;;;;;15.17;12.10;;;13.80;99.90;;;;;;5048643;28;20184;-83
2022/10/20 00:42:19;;;;;;;15.73;12.70;;;13.90;99.90;;;;;;5081356;28;20163;-82
2022/10/20 00:44:57;;;;;;;12.73;11.30;;;14.00;99.90;;;;;;5062325;28;20206;-86
2022/10/20 00:47:34;;;;;;;15.60;12.07;;;13.80;99.90;;;;;;5063554;28;20161;-87
2022/10/20 00:53:25;;;;;;;14.60;12.57;;;13.70;99.90;;;;;;5065147;28;20158;-87
2022/10/20 00:56:11;;;;;;;15.93;12.90;;;13.80;99.90;;;;;;5040786;28;20175;-87
2022/10/20 00:58:37;;;;;;;17.43;12.83;;;13.70;99.90;;;;;;5039667;28;20163;-88
2022/10/20 01:01:03;;;;;;;18.17;13.37;;;13.70;99.90;;;;;;5054945;28;20207;-83
2022/10/20 01:03:45;;;;;;;17.37;13.20;;;13.70;99.90;;;;;;5078855;28;20171;-83
2022/10/20 01:06:12;;;;;;;14.53;12.97;;;13.60;99.90;;;;;;5079738;28;20178;-83
2022/10/20 01:08:38;;;;;;;15.47;13.00;;;13.70;99.90;;;;;;5061395;28;20194;-81
2022/10/20 01:11:18;;;;;;;14.50;12.73;;;13.60;99.90;;;;;;5079080;28;20189;-86
2022/10/20 01:13:51;;;;;;;15.90;12.83;;;13.70;99.90;;;;;;5078706;28;20180;-82
2022/10/20 01:16:45;;;;;;;14.63;12.77;;;13.80;99.90;;;;;;5055321;28;20183;-84
2022/10/20 01:19:41;;;;;;;15.87;12.27;;;13.60;99.90;;;;;;5061838;28;20199;-81
2022/10/20 01:22:46;;;;;;;18.80;13.40;;;13.60;99.90;;;;;;5059195;28;20191;-82
2022/10/20 01:25:49;;;;;;;15.53;11.97;;;13.50;99.90;;;;;;5060919;28;20211;-81
2022/10/20 01:28:41;;;;;;;16.43;12.80;;;13.50;99.90;;;;;;5078097;28;20180;-81
2022/10/20 01:31:27;;;;;;;18.80;12.90;;;13.50;99.90;;;;;;5060356;28;20179;-82
2022/10/20 01:34:08;;;;;;;17.20;13.33;;;13.50;99.90;;;;;;5060493;28;20190;-86
2022/10/20 01:36:49;;;;;;;16.07;14.10;;;13.50;99.90;;;;;;5059475;28;20165;-85
2022/10/20 01:39:49;;;;;;;14.97;12.90;;;13.50;99.90;;;;;;5049935;28;20169;-86
2022/10/20 01:42:23;;;;;;;18.80;12.70;;;13.50;99.90;;;;;;5045485;28;20650;-85
2022/10/20 01:44:57;;;;;;;18.33;13.57;;;13.40;99.90;;;;;;5064932;28;20286;-83
2022/10/20 01:47:30;;;;;;;14.47;12.33;;;13.50;99.90;;;;;;5031282;28;20198;-82
2022/10/20 01:49:57;;;;;;;16.37;13.47;;;13.40;99.90;;;;;;5046962;28;20266;-84
2022/10/20 01:52:38;;;;;;;16.57;12.83;;;13.40;99.90;;;;;;5047140;28;20174;-82
2022/10/20 01:55:11;;;;;;;15.70;12.77;;;13.40;99.90;;;;;;5046840;28;20669;-84
2022/10/20 01:57:48;;;;;;;16.30;13.27;;;13.40;99.90;;;;;;5045972;28;20169;-83
2022/10/20 02:03:56;;;;;;;20.10;13.10;;;13.50;99.90;;;;;;5064396;28;20241;-83
2022/10/20 02:06:56;;;;;;;17.20;13.20;;;13.50;99.90;;;;;;5044391;28;20175;-82
2022/10/20 02:09:37;;;;;;;16.87;13.10;;;13.50;99.90;;;;;;5046738;28;20171;-85
2022/10/20 02:15:28;;;;;;;15.50;11.90;;;13.50;99.90;;;;;;5056910;28;20205;-84
2022/10/20 02:18:00;;;;;;;17.60;12.97;;;13.50;99.90;;;;;;5039045;28;20186;-86
2022/10/20 02:20:59;;;;;;;16.00;13.27;;;13.50;99.90;;;;;;5039809;28;20716;-86
2022/10/20 02:23:45;;;;;;;14.63;12.83;;;13.50;99.90;;;;;;5058008;28;20153;-85
2022/10/20 02:26:17;;;;;;;15.20;12.37;;;13.60;99.90;;;;;;5056379;28;20180;-85
2022/10/20 02:28:55;;;;;;;16.43;13.13;;;13.60;99.90;;;;;;5056563;28;20246;-84
2022/10/20 02:31:22;;;;;;;17.33;13.87;;;13.60;99.90;;;;;;5057168;28;20234;-87
2022/10/20 02:33:50;;;;;;;16.80;13.03;;;13.60;99.90;;;;;;5057234;28;20181;-85
2022/10/20 02:36:18;;;;;;;14.60;12.20;;;13.60;99.90;;;;;;5038537;28;20486;-87
2022/10/20 02:38:45;;;;;;;18.10;12.77;;;13.70;99.90;;;;;;5039040;28;20266;-88
2022/10/20 02:41:11;;;;;;;15.00;12.70;;;13.60;99.90;;;;;;5038561;28;20183;-86
2022/10/20 02:43:37;;;;;;;16.83;12.40;;;13.70;99.90;;;;;;5038555;28;20175;-86
2022/10/20 02:46:03;;;;;;;19.60;13.10;;;13.70;99.90;;;;;;5038501;28;20183;-86
2022/10/20 02:48:30;;;;;;;17.03;12.87;;;13.70;99.90;;;;;;5038433;28;20176;-82
2022/10/20 02:50:56;;;;;;;15.93;11.83;;;13.80;99.90;;;;;;5037782;28;20174;-85
2022/10/20 02:53:23;;;;;;;16.67;13.17;;;13.80;99.90;;;;;;5038569;28;20263;-86
2022/10/20 02:55:48;;;;;;;13.13;11.73;;;13.70;99.90;;;;;;5037762;28;20252;-84
2022/10/20 02:58:14;;;;;;;14.17;12.73;;;13.80;99.90;;;;;;5056487;28;20571;-87
2022/10/20 03:00:41;;;;;;;17.70;11.90;;;13.70;99.90;;;;;;5040449;28;20205;-84
2022/10/20 03:03:07;;;;;;;17.00;11.60;;;13.70;99.90;;;;;;5059884;28;20172;-84
2022/10/20 03:05:32;;;;;;;16.40;12.80;;;13.90;99.90;;;;;;5059431;28;20729;-82
2022/10/20 03:07:58;;;;;;;14.07;11.37;;;13.90;99.90;;;;;;5057295;28;20176;-87
2022/10/20 03:10:28;;;;;;;15.67;11.63;;;14.10;99.90;;;;;;5064416;28;20175;-84
2022/10/20 03:12:53;;;;;;;14.40;11.13;;;14.00;99.90;;;;;;5048663;28;20172;-85
2022/10/20 03:15:19;;;;;;;15.23;13.07;;;14.00;99.90;;;;;;5063407;28;20186;-86
2022/10/20 03:17:45;;;;;;;17.60;12.23;;;13.90;99.90;;;;;;5046589;28;20201;-84
2022/10/20 03:20:13;;;;;;;16.67;12.23;;;13.90;99.90;;;;;;5058791;28;20182;-88
2022/10/20 03:23:00;;;;;;;14.37;12.10;;;14.00;99.90;;;;;;5038143;28;20173;-87
2022/10/20 03:25:29;;;;;;;16.23;12.33;;;14.00;99.90;;;;;;5055403;28;20214;-87
2022/10/20 03:27:55;;;;;;;16.93;12.83;;;14.00;99.90;;;;;;5056389;28;20168;-87
2022/10/20 03:30:21;;;;;;;16.37;12.93;;;13.90;99.90;;;;;;5037515;28;20180;-83
2022/10/20 03:32:46;;;;;;;14.83;12.20;;;14.00;99.90;;;;;;5036766;28;20175;-86
2022/10/20 03:35:12;;;;;;;17.30;12.70;;;14.30;99.90;;;;;;5055567;28;20642;-87
2022/10/20 03:37:40;;;;;;;13.20;11.90;;;14.30;98.70;;;;;;5037437;28;20178;-87
2022/10/20 03:40:06;;;;;;;17.50;12.87;;;14.40;97.20;;;;;;5036681;28;20192;-87
2022/10/20 03:42:31;;;;;;;17.60;12.73;;;14.40;95.90;;;;;;5036891;28;20185;-86
2022/10/20 03:44:57;;;;;;;15.00;12.70;;;14.30;96.20;;;;;;5038091;28;20204;-86
2022/10/20 03:47:23;;;;;;;16.47;12.87;;;14.10;98.00;;;;;;5040531;28;20632;-86
2022/10/20 03:49:48;;;;;;;14.63;11.80;;;14.20;99.40;;;;;;5047205;28;20181;-86
2022/10/20 03:52:14;;;;;;;14.97;13.33;;;14.10;99.10;;;;;;5072459;28;20149;-85
2022/10/20 03:54:43;;;;;;;15.00;12.17;;;14.20;99.30;;;;;;5043288;28;20397;-87
2022/10/20 03:57:09;;;;;;;18.73;12.47;;;14.20;98.40;;;;;;5056196;28;20180;-86
2022/10/20 03:59:34;;;;;;;17.63;12.67;;;14.10;97.40;;;;;;5041281;28;20233;-87
2022/10/20 04:02:00;;;;;;;15.17;12.40;;;14.10;98.10;;;;;;5056891;28;20190;-83
2022/10/20 04:04:26;;;;;;;17.77;13.53;;;14.00;99.00;;;;;;5077133;28;20187;-86
2022/10/20 04:06:51;;;;;;;17.47;13.80;;;14.00;99.70;;;;;;5080924;28;20175;-84
2022/10/20 04:09:23;;;;;;;17.27;13.93;;;14.00;99.70;;;;;;5060432;28;20183;-83
2022/10/20 04:12:28;;;;;;;17.93;13.20;;;14.00;99.50;;;;;;5075429;28;20176;-83
2022/10/20 04:15:32;;;;;;;19.30;13.50;;;13.70;99.90;;;;;;5042662;28;20205;-84
2022/10/20 04:18:32;;;;;;;15.77;12.90;;;13.40;99.90;;;;;;5041099;28;20631;-86
2022/10/20 04:20:58;;;;;;;16.07;13.23;;;13.50;99.90;;;;;;5039708;28;20615;-83
2022/10/20 04:23:24;;;;;;;16.07;13.43;;;13.50;99.90;;;;;;5059731;28;20172;-87
2022/10/20 04:25:50;;;;;;;16.77;14.00;;;13.60;99.90;;;;;;5041568;28;20197;-85
2022/10/20 04:28:17;;;;;;;17.50;12.63;;;13.70;99.90;;;;;;5057538;28;20179;-85
2022/10/20 04:30:44;;;;;;;17.10;13.30;;;13.70;99.90;;;;;;5058433;28;20161;-86
2022/10/20 04:33:11;;;;;;;19.67;13.37;;;13.80;99.90;;;;;;5040666;28;20179;-85
2022/10/20 04:35:36;;;;;;;18.17;13.10;;;13.70;99.90;;;;;;5058216;28;20163;-87
2022/10/20 04:38:02;;;;;;;17.20;12.67;;;13.80;99.90;;;;;;5039835;28;20176;-87
2022/10/20 04:40:28;;;;;;;18.43;12.70;;;13.70;99.90;;;;;;5057567;28;20185;-87
2022/10/20 04:42:54;;;;;;;16.03;12.67;;;13.80;99.90;;;;;;5057566;28;20179;-86
2022/10/20 04:45:19;;;;;;;19.93;11.90;;;13.90;99.90;;;;;;5057202;28;20207;-88
2022/10/20 04:47:45;;;;;;;16.10;11.87;;;14.00;99.90;;;;;;5039514;28;20228;-88
2022/10/20 04:50:11;;;;;;;15.63;11.83;;;14.10;99.90;;;;;;5064906;28;20251;-82
2022/10/20 04:52:38;;;;;;;17.40;13.40;;;14.10;99.90;;;;;;5024888;28;20179;-87
2022/10/20 04:55:04;;;;;;;14.87;12.00;;;14.00;99.90;;;;;;5058716;28;20183;-88
2022/10/20 04:57:29;;;;;;;14.37;11.37;;;14.10;99.90;;;;;;5058394;28;20168;-88
2022/10/20 04:59:55;;;;;;;15.37;11.60;;;14.30;99.90;;;;;;5041288;28;20200;-89
2022/10/20 05:02:20;;;;;;;19.13;12.63;;;14.20;99.90;;;;;;5057776;28;20656;-87
2022/10/20 05:04:46;;;;;;;17.80;12.60;;;14.10;99.90;;;;;;5040020;28;20575;-89
2022/10/20 05:07:12;;;;;;;16.33;11.63;;;14.20;99.90;;;;;;5041595;28;20620;-85
2022/10/20 05:09:37;;;;;;;19.13;12.10;;;14.30;99.60;;;;;;5043112;28;20267;-87
2022/10/20 05:12:04;;;;;;;13.37;11.37;;;14.20;99.10;;;;;;5041806;28;20188;-85
2022/10/20 05:14:30;;;;;;;21.20;12.70;;;14.30;98.80;;;;;;5041370;28;20181;-88
2022/10/20 05:16:56;;;;;;;20.30;13.00;;;14.20;98.80;;;;;;5055603;28;20621;-86
2022/10/20 05:19:22;;;;;;;17.33;12.70;;;14.30;98.80;;;;;;5058052;28;20164;-88
2022/10/20 05:21:48;;;;;;;15.43;11.23;;;14.10;99.80;;;;;;5057648;28;20185;-87
2022/10/20 05:24:15;;;;;;;15.47;10.87;;;14.20;99.90;;;;;;5039201;28;20287;-82
2022/10/20 05:26:42;;;;;;;19.73;11.40;;;14.30;99.90;;;;;;5044858;28;20188;-87
2022/10/20 05:29:10;;;;;;;13.60;11.33;;;14.30;98.90;;;;;;5040176;28;20240;-85
2022/10/20 05:31:38;;;;;;;17.97;12.50;;;14.30;98.80;;;;;;5056154;28;20229;-86
2022/10/20 05:34:04;;;;;;;16.07;11.73;;;14.20;99.40;;;;;;5068085;28;20188;-85
2022/10/20 05:36:30;;;;;;;12.33;10.10;;;14.30;99.90;;;;;;5051513;28;20200;-88
2022/10/20 05:38:56;;;;;;;14.53;10.47;;;14.30;99.90;;;;;;5039504;28;20197;-89
2022/10/20 05:41:27;;;;;;;14.73;10.10;;;14.30;99.90;;;;;;5023400;28;20192;-85
2022/10/20 05:43:58;;;;;;;15.13;10.17;;;14.30;99.90;;;;;;5057953;28;20189;-85
2022/10/20 05:46:27;;;;;;;13.27;9.90;;;14.30;99.90;;;;;;5042512;28;20173;-85
2022/10/20 05:48:55;;;;;;;13.63;9.73;;;14.30;99.90;;;;;;5042259;28;20260;-87
2022/10/20 05:51:23;;;;;;;15.17;10.60;;;14.40;99.90;;;;;;5040544;28;20203;-88
2022/10/20 05:53:50;;;;;;;14.90;10.43;;;14.40;99.90;;;;;;5057454;28;20524;-82
2022/10/20 05:56:20;;;;;;;13.07;10.40;;;14.50;99.90;;;;;;5056224;28;20176;-85
2022/10/20 05:58:47;;;;;;;12.47;9.90;;;14.60;99.90;;;;;;5041508;28;20181;-86
2022/10/20 06:01:20;;;;;;;12.67;9.23;;;14.70;99.90;;;;;;5042606;28;20197;-87
2022/10/20 06:03:52;;;;;;;12.53;9.60;;;14.90;99.90;;;;;;5057051;28;20168;-85
2022/10/20 06:06:19;;;;;;;14.83;10.47;;;15.00;99.90;;;;;;5068613;28;20161;-86
2022/10/20 06:08:47;;;;;;;20.07;10.90;;;15.10;99.90;;;;;;5059678;28;20176;-86
2022/10/20 06:11:14;;;;;;;19.13;11.33;;;15.20;98.80;;;;;;5065146;28;20180;-80
2022/10/20 06:13:40;;;;;;;16.97;11.07;;;15.20;97.50;;;;;;5062340;28;20169;-86
2022/10/20 06:16:11;;;;;;;16.40;11.17;;;15.30;97.20;;;;;;5064073;28;20210;-85
2022/10/20 06:18:37;;;;;;;18.53;11.60;;;15.30;96.70;;;;;;5044083;28;20188;-85
2022/10/20 06:21:15;;;;;;;18.37;12.80;;;15.30;96.20;;;;;;5071739;28;20256;-87
2022/10/20 06:23:40;;;;;;;17.93;14.77;;;15.50;95.30;;;;;;5067929;28;20179;-88
2022/10/20 06:26:09;;;;;;;21.47;13.70;;;15.50;94.20;;;;;;5059018;28;20192;-88
2022/10/20 06:28:37;;;;;;;15.33;11.70;;;15.40;94.30;;;;;;5039378;28;20180;-88
2022/10/20 06:31:20;;;;;;;16.30;11.67;;;15.40;95.00;;;;;;5059814;28;20632;-88
2022/10/20 06:33:46;;;;;;;16.37;10.67;;;15.60;94.30;;;;;;5039572;28;20181;-88
2022/10/20 06:36:14;;;;;;;14.73;10.63;;;15.60;93.40;;;;;;5057135;28;20180;-88
2022/10/20 06:38:41;;;;;;;14.07;9.73;;;15.60;94.00;;;;;;5039978;28;20176;-89
2022/10/20 06:41:10;;;;;;;17.13;8.80;;;15.70;94.00;;;;;;5058446;28;20188;-89
2022/10/20 06:43:37;;;;;;;12.37;8.13;;;15.70;93.60;;;;;;5039455;28;20176;-89
2022/10/20 06:46:05;;;;;;;16.97;8.43;;;15.90;92.50;;;;;;5058050;28;20173;-89
2022/10/20 06:48:32;;;;;;;12.47;8.07;;;15.90;91.20;;;;;;5040830;28;20183;-87
2022/10/20 06:51:03;;;;;;;20.47;10.47;;;16.00;91.50;;;;;;5058166;28;20169;-89
2022/10/20 06:53:29;;;;;;;11.97;8.33;;;16.00;89.50;;;;;;5057905;28;20171;-90
2022/10/20 06:55:59;;;;;;;11.33;7.67;;;16.00;90.30;;;;;;5039705;28;20201;-89
2022/10/20 06:58:25;;;;;;;10.37;7.33;;;16.10;90.00;;;;;;5058345;28;20210;-88
2022/10/20 07:00:58;;;;;;;11.03;7.17;;;15.90;90.10;;;;;;5058976;28;20192;-89
2022/10/20 07:03:24;;;;;;;11.87;7.40;;;16.00;90.30;;;;;;5041618;28;20169;-89
2022/10/20 07:05:50;;;;;;;11.73;7.30;;;15.90;91.20;;;;;;5059206;28;20227;-90
2022/10/20 07:08:16;;;;;;;14.57;7.03;;;16.00;90.70;;;;;;5040634;28;20196;-88
2022/10/20 07:10:41;;;;;;;11.73;7.00;;;16.00;90.50;;;;;;5039873;28;20192;-89
2022/10/20 07:13:07;;;;;;;11.57;7.33;;;16.10;90.10;;;;;;5058387;28;20208;-89
2022/10/20 07:15:33;;;;;;;12.47;7.30;;;16.00;91.00;;;;;;5037757;28;20188;-83
2022/10/20 07:18:00;;;;;;;13.87;7.27;;;15.90;91.10;;;;;;5056911;28;20194;-82
2022/10/20 07:20:26;;;;;;;10.17;7.77;;;15.90;92.70;;;;;;5066841;28;20210;-83
2022/10/20 07:22:52;;;;;;;11.67;7.70;;;15.90;93.20;;;;;;5077034;28;20153;-84
2022/10/20 07:25:20;;;;;;;11.13;7.50;;;15.90;93.20;;;;;;5074739;28;20201;-81
2022/10/20 07:27:48;;;;;;;12.20;7.50;;;15.90;93.40;;;;;;5077068;28;20141;-85
2022/10/20 07:30:14;;;;;;;9.87;7.30;;;16.00;93.20;;;;;;5059664;28;20240;-82
2022/10/20 07:32:43;;;;;;;13.93;8.40;;;16.00;93.10;;;;;;5050402;28;20174;-86
2022/10/20 07:35:12;;;;;;;11.67;7.40;;;16.10;92.40;;;;;;5065212;28;20219;-81
2022/10/20 07:37:37;;;;;;;12.10;6.93;;;16.00;93.00;;;;;;5071493;28;20188;-81
2022/10/20 07:40:04;;;;;;;13.53;8.30;;;16.10;93.90;;;;;;5069766;28;20161;-81
2022/10/20 07:42:29;;;;;;;12.23;8.27;;;16.20;92.50;;;;;;5054668;28;20176;-85
2022/10/20 07:44:56;;;;;;;19.50;7.83;;;16.20;91.30;;;;;;5067832;28;20201;-82
2022/10/20 07:47:22;;;;;;;13.70;7.40;;;16.20;91.50;;;;;;5058681;28;20159;-88
2022/10/20 07:49:47;;;;;;;14.37;8.37;;;16.40;91.10;;;;;;5058334;28;20227;-85
2022/10/20 07:52:15;;;;;;;12.90;8.80;;;16.40;90.30;;;;;;5056883;28;20195;-85
2022/10/20 07:54:43;;;;;;;14.27;8.10;;;16.40;88.40;;;;;;5038488;28;20177;-84
2022/10/20 07:57:15;;;;;;;15.47;8.33;;;16.40;89.90;;;;;;5054356;28;20175;-83
2022/10/20 07:59:44;;;;;;;11.07;8.30;;;16.50;89.90;;;;;;5053981;28;20229;-87
2022/10/20 08:02:10;;;;;;;12.43;7.73;;;16.50;87.80;;;;;;5020486;28;20609;-86
2022/10/20 08:04:40;;;;;;;13.47;9.07;;;16.50;89.30;;;;;;5036947;28;20578;-83
2022/10/20 08:07:07;;;;;;;10.73;7.87;;;16.50;90.70;;;;;;5054753;28;20669;-86
2022/10/20 08:09:33;;;;;;;14.53;7.73;;;16.60;90.10;;;;;;5054397;28;20165;-84
2022/10/20 08:11:59;;;;;;;11.40;8.00;;;16.60;90.20;;;;;;5058707;28;20199;-83
2022/10/20 08:14:30;;;;;;;16.30;7.90;;;16.60;91.00;;;;;;5056305;28;20181;-82
2022/10/20 08:16:56;;;;;;;18.07;8.60;;;16.70;90.00;;;;;;5056623;28;20177;-82
2022/10/20 08:19:23;;;;;;;13.03;7.93;;;16.60;91.00;;;;;;5074820;28;20212;-84
2022/10/20 08:21:49;;;;;;;10.90;7.80;;;16.60;92.40;;;;;;5074321;28;20184;-86
2022/10/20 08:24:15;;;;;;;12.83;8.30;;;16.60;93.10;;;;;;5079290;28;20253;-82
2022/10/20 08:26:41;;;;;;;13.97;8.50;;;16.60;93.70;;;;;;5081747;28;20176;-81
2022/10/20 08:29:08;;;;;;;16.87;9.37;;;16.70;94.40;;;;;;5081489;28;20176;-83
2022/10/20 08:31:37;;;;;;;12.87;9.40;;;16.70;94.30;;;;;;5058156;28;20179;-85
2022/10/20 08:34:06;;;;;;;19.20;10.43;;;16.70;94.90;;;;;;5075360;28;20198;-85
2022/10/20 08:36:32;;;;;;;17.23;9.40;;;17.00;95.30;;;;;;5074961;28;20179;-84
2022/10/20 08:38:58;;;;;;;11.47;9.43;;;16.90;94.70;;;;;;5056059;28;20180;-80
2022/10/20 08:41:28;;;;;;;17.43;11.40;;;17.20;93.50;;;;;;5073903;28;20690;-83
2022/10/20 08:43:56;;;;;;;14.33;9.83;;;17.10;93.10;;;;;;5055887;28;20573;-84
2022/10/20 08:46:28;;;;;;;16.13;10.87;;;17.30;93.10;;;;;;5056330;28;20169;-82
2022/10/20 08:48:56;;;;;;;14.17;9.67;;;17.30;93.30;;;;;;5057313;28;20180;-84
2022/10/20 08:51:26;;;;;;;14.83;10.17;;;17.30;93.70;;;;;;5075989;28;20223;-86
2022/10/20 08:53:58;;;;;;;13.50;10.67;;;17.30;94.30;;;;;;5046901;28;20181;-88
2022/10/20 08:56:28;;;;;;;14.03;10.20;;;17.30;97.20;;;;;;5058695;28;20176;-88
2022/10/20 08:58:54;;;;;;;16.83;9.83;;;17.30;97.90;;;;;;5041815;28;20190;-89
2022/10/20 09:01:31;;;;;;;15.53;10.47;;;17.30;98.70;;;;;;5043417;28;20199;-89
2022/10/20 09:04:02;;;;;;;12.50;9.73;;;17.40;99.50;;;;;;5042325;28;20208;-90
2022/10/20 09:06:29;;;;;;;14.60;9.57;;;17.50;98.90;;;;;;5042934;28;20174;-89
2022/10/20 09:08:56;;;;;;;18.83;10.53;;;17.50;98.50;;;;;;5061437;28;20184;-90
2022/10/20 09:11:27;;;;;;;18.10;11.83;;;17.60;97.70;;;;;;5060349;28;20203;-90
2022/10/20 09:13:53;;;;;;;13.47;9.60;;;17.70;97.80;;;;;;5044355;28;20240;-88
2022/10/20 09:16:24;;;;;;;17.00;10.77;;;17.70;97.30;;;;;;5045030;28;20177;-91
2022/10/20 09:18:58;;;;;;;15.20;9.90;;;17.60;98.10;;;;;;5061531;28;20260;-90
2022/10/20 09:21:24;;;;;;;15.10;10.23;;;17.60;98.50;;;;;;5050032;28;20206;-91
2022/10/20 09:23:53;;;;;;;17.57;10.73;;;17.60;99.00;;;;;;5082878;28;20645;-88
2022/10/20 09:26:22;;;;;;;14.40;10.93;;;17.50;99.80;;;;;;5064880;28;20252;-89
2022/10/20 09:28:50;;;;;;;15.43;9.80;;;17.40;99.90;;;;;;5080148;28;20171;-90
2022/10/20 09:31:33;;;;;;;12.03;9.07;;;17.40;99.90;;;;;;5080937;28;20169;-89
2022/10/20 09:33:59;;;;;;;13.90;9.47;;;17.30;99.90;;;;;;5063637;28;20209;-89
2022/10/20 09:36:32;;;;;;;14.73;9.93;;;17.30;99.90;;;;;;5090448;28;20176;-91
2022/10/20 09:38:58;;;;;;;13.23;10.10;;;17.30;99.90;;;;;;5088412;28;20145;-89
2022/10/20 09:41:34;;;;;;;17.87;10.20;;;17.40;99.90;;;;;;5082055;28;20184;-87
2022/10/20 09:44:06;;;;;;;16.30;9.27;;;17.50;99.90;;;;;;5099428;28;20215;-90
2022/10/20 09:46:42;;;;;;;15.80;9.53;;;17.50;99.90;;;;;;5082277;28;20164;-90
2022/10/20 09:49:23;;;;;;;14.30;9.60;;;17.50;99.90;;;;;;5073382;28;20211;-88
2022/10/20 09:51:51;;;;;;;13.77;10.27;;;17.50;99.90;;;;;;5069123;28;20181;-89
2022/10/20 09:54:19;;;;;;;15.60;9.80;;;17.50;99.90;;;;;;5073871;28;20196;-86
2022/10/20 09:56:48;;;;;;;13.47;10.23;;;17.50;99.90;;;;;;5099931;28;20189;-89
2022/10/20 09:59:36;;;;;;;13.13;9.13;;;17.70;99.90;;;;;;5083541;28;20162;-90
2022/10/20 10:02:13;;;;;;;15.53;9.93;;;17.70;99.90;;;;;;5068841;28;20255;-85
2022/10/20 10:04:45;;;;;;;13.40;10.57;;;17.70;99.90;;;;;;5070201;28;20210;-88
2022/10/20 10:07:26;;;;;;;14.87;9.37;;;17.70;99.90;;;;;;5070974;28;20187;-83
2022/10/20 10:10:01;;;;;;;13.47;10.47;;;17.70;99.90;;;;;;5065805;28;20176;-86
2022/10/20 10:12:28;;;;;;;13.57;9.57;;;17.70;99.90;;;;;;5079900;28;20189;-88
2022/10/20 10:15:01;;;;;;;11.43;9.27;;;17.70;99.90;;;;;;5078614;28;20166;-90
2022/10/20 10:17:28;;;;;;;14.90;9.17;;;17.60;99.90;;;;;;5061595;28;20189;-89
2022/10/20 10:19:54;;;;;;;13.43;9.50;;;17.60;99.90;;;;;;5060473;28;20207;-88
2022/10/20 10:22:20;;;;;;;15.60;9.33;;;17.70;99.90;;;;;;5064416;28;20182;-89
2022/10/20 10:24:49;;;;;;;15.10;8.33;;;17.60;99.90;;;;;;5081537;28;20218;-90
2022/10/20 10:27:26;;;;;;;14.40;7.67;;;17.60;99.90;;;;;;5070522;28;20200;-87
2022/10/20 10:30:33;;;;;;;11.30;7.27;;;17.50;99.90;;;;;;5066296;28;20168;-85
2022/10/20 10:33:00;;;;;;;11.73;7.17;;;17.50;99.90;;;;;;5091096;28;20161;-87
2022/10/20 10:35:42;;;;;;;11.90;7.87;;;17.40;99.90;;;;;;5090615;28;20164;-88
2022/10/20 10:38:12;;;;;;;11.07;7.90;;;17.40;99.90;;;;;;5077034;28;20177;-86
2022/10/20 10:41:01;;;;;;;10.37;8.00;;;17.40;99.90;;;;;;5091508;28;20180;-84
2022/10/20 10:43:38;;;;;;;10.40;8.93;;;17.50;99.90;;;;;;5076037;28;20189;-82
2022/10/20 10:46:19;;;;;;;12.00;8.07;;;17.50;99.90;;;;;;5098743;28;20168;-84
2022/10/20 10:49:12;;;;;;;14.77;7.87;;;17.50;99.90;;;;;;5097957;28;20166;-86
2022/10/20 10:52:23;;;;;;;10.20;8.07;;;17.60;99.90;;;;;;5078598;28;20165;-83
2022/10/20 10:55:16;;;;;;;17.30;8.27;;;17.50;99.90;;;;;;5084326;28;20168;-86
2022/10/20 10:58:00;;;;;;;13.50;8.40;;;17.50;99.90;;;;;;5082696;28;20157;-89
2022/10/20 11:01:01;;;;;;;15.27;8.50;;;17.50;99.90;;;;;;5069426;28;20207;-90
2022/10/20 11:03:37;;;;;;;12.33;8.30;;;17.50;99.90;;;;;;5034863;28;20177;-88
2022/10/20 11:06:15;;;;;;;11.83;8.43;;;17.60;99.90;;;;;;5064894;28;20180;-88
2022/10/20 11:09:01;;;;;;;16.70;8.60;;;17.60;99.90;;;;;;5081746;28;20167;-88
2022/10/20 11:11:43;;;;;;;15.37;8.30;;;17.60;99.90;;;;;;5064195;28;20191;-88
2022/10/20 11:14:30;;;;;;;12.43;8.27;;;17.70;99.90;;;;;;5083792;28;20150;-89
2022/10/20 11:17:19;;;;;;;13.43;9.10;;;17.80;99.90;;;;;;5067346;28;20694;-89
2022/10/20 11:20:28;;;;;;;16.07;8.67;;;18.00;99.90;;;;;;5066486;28;20234;-88
2022/10/20 11:23:28;;;;;;;13.43;8.10;;;18.40;99.90;;;;;;4977907;28;20195;-88
2022/10/20 11:26:11;;;;;;;12.40;7.40;;;18.60;99.90;;;;;;4977500;28;20213;-87
2022/10/20 11:28:51;;;;;;;15.27;7.50;;;18.80;99.90;;;;;;5063594;28;20187;-89
2022/10/20 11:31:21;;;;;;;14.53;7.63;;;19.00;99.90;;;;;;5059674;28;20232;-88
2022/10/20 11:33:55;;;;;;;12.70;7.00;;;19.10;97.50;;;;;;5059727;28;20167;-88
2022/10/20 11:36:24;;;;;;;11.00;6.17;;;19.30;95.30;;;;;;5058969;28;20250;-90
2022/10/20 11:38:53;;;;;;;8.33;6.23;;;19.50;93.50;;;;;;5077929;28;20156;-88
2022/10/20 11:41:30;;;;;;;10.13;6.20;;;19.60;89.70;;;;;;5058588;28;20175;-89
2022/10/20 11:44:43;;;;;;;10.23;5.77;;;19.50;85.80;;;;;;5058769;28;20183;-89
2022/10/20 11:47:13;;;;;;;10.63;5.97;;;19.60;87.10;;;;;;5067474;28;20678;-86
2022/10/20 11:49:39;;;;;;;10.27;5.43;;;19.60;83.60;;;;;;5076589;28;20163;-90
2022/10/20 11:52:42;;;;;;;9.07;4.77;;;19.60;80.70;;;;;;5059702;28;20181;-89
2022/10/20 11:55:42;;;;;;;9.07;4.50;;;19.60;78.20;;;;;;5059614;28;20589;-88
2022/10/20 11:58:30;;;;;;;9.13;4.60;;;19.60;72.80;;;;;;5060207;28;20176;-90
2022/10/20 12:01:00;;;;;;;9.50;4.80;;;19.70;75.30;;;;;;5059050;28;20223;-88
2022/10/20 12:03:41;;;;;;;11.23;4.93;;;19.60;73.00;;;;;;5059057;28;20167;-89
2022/10/20 12:06:27;;;;;;;6.50;4.20;;;19.60;75.10;;;;;;5077344;28;20181;-90
2022/10/20 12:09:24;;;;;;;9.57;4.87;;;19.60;75.50;;;;;;5077042;28;20816;-89
2022/10/20 12:12:09;;;;;;;9.70;4.80;;;19.60;73.00;;;;;;5076821;28;20182;-88
2022/10/20 12:14:44;;;;;;;8.93;4.57;;;19.70;70.40;;;;;;5050076;28;20714;-89
2022/10/20 12:17:14;;;;;;;11.10;4.50;;;19.80;70.10;;;;;;5078443;28;20534;-88
2022/10/20 12:19:39;;;;;;;13.80;4.07;;;19.80;64.20;;;;;;5062292;28;20165;-88
2022/10/20 12:22:25;;;;;;;9.27;4.70;;;19.80;59.90;;;;;;5078957;28;20199;-89
2022/10/20 12:24:51;;;;;;;8.97;4.07;;;20.30;47.10;;;;;;5068960;28;20218;-87
2022/10/20 12:27:21;;;;;;;9.60;4.43;;;20.40;38.90;;;;;;5095081;28;20153;-89
2022/10/20 12:29:49;;;;;;;10.80;4.77;;;20.50;37.40;;;;;;5066954;28;20189;-88
2022/10/20 12:32:36;;;;;;;7.20;4.13;;;20.50;29.20;;;;;;5048027;28;20285;-88
2022/10/20 12:35:18;;;;;;;7.77;3.37;;;20.70;22.00;;;;;;5063711;28;20172;-90
2022/10/20 12:37:54;;;;;;;8.10;4.10;;;20.80;13.50;;;;;;5062879;28;20164;-87
2022/10/20 12:40:29;;;;;;;7.63;3.50;;;21.00;12.30;;;;;;5083713;28;20196;-88
2022/10/20 12:42:55;;;;;;;9.27;3.57;;;21.00;3.20;;;;;;5064786;28;20176;-89
2022/10/20 12:45:35;;;;;;;7.00;3.07;;;21.00;1.00;;;;;;5062750;28;20230;-91
2022/10/20 12:48:03;;;;;;;6.27;2.97;;;20.90;1.00;;;;;;5081584;28;20612;-90
2022/10/20 12:50:44;;;;;;;7.40;3.53;;;21.00;1.00;;;;;;5046926;28;20629;-87
2022/10/20 12:53:25;;;;;;;5.00;2.93;;;21.10;1.00;;;;;;5081405;28;20204;-88
2022/10/20 12:56:09;;;;;;;7.80;2.90;;;21.00;1.00;;;;;;5063597;28;20725;-88
2022/10/20 12:58:58;;;;;;;5.67;3.03;;;21.10;1.00;;;;;;5084765;28;20228;-86
2022/10/20 13:01:23;;;;;;;6.23;2.60;;;21.30;1.00;;;;;;5088419;28;20184;-88
2022/10/20 13:03:51;;;;;;;8.27;3.57;;;21.50;1.00;;;;;;5084716;28;20161;-89
2022/10/20 13:06:25;;;;;;;11.03;3.33;;;21.50;1.00;;;;;;5080440;28;20166;-88
2022/10/20 13:09:21;;;;;;;7.47;4.93;;;21.50;1.00;;;;;;5083346;28;20174;-85